Time;durP1;ratioP1;P1;durP2;ratioP2;P2;SDS_P1;SDS_P2;PMS_P1;PMS_P2;Temp;Humidity;BMP_temperature;BMP_pressure;BME280_temperature;BME280_humidity;BME280_pressure;Samples;Min_cycle;Max_cycle;Signal;HPM_P1;HPM_P2
2021/10/17 00:00:17;;;;;;;17.17;15.70;;;5.20;99.90;;;6.03;89.40;98322.25;5202656;28;20197;-60
2021/10/17 00:02:51;;;;;;;16.40;14.90;;;5.20;99.90;;;5.96;89.80;98322.50;5204725;28;20588;-60
2021/10/17 00:05:29;;;;;;;16.07;14.57;;;5.10;99.90;;;5.94;89.68;98323.16;5208356;28;20568;-60
2021/10/17 00:08:04;;;;;;;16.77;15.27;;;5.10;99.90;;;5.93;89.82;98326.44;5206685;28;20286;-62
2021/10/17 00:10:39;;;;;;;15.80;14.40;;;5.10;99.90;;;5.95;89.77;98329.97;5207071;28;20723;-59
2021/10/17 00:13:12;;;;;;;15.57;14.23;;;5.10;99.90;;;5.95;89.53;98330.91;5206445;28;20211;-59
2021/10/17 00:15:46;;;;;;;16.17;14.77;;;5.10;99.90;;;5.91;89.79;98327.94;5206383;28;20204;-61
2021/10/17 00:18:20;;;;;;;16.83;15.13;;;5.10;99.90;;;5.94;89.62;98333.28;5204640;28;20230;-59
2021/10/17 00:20:54;;;;;;;18.10;16.47;;;5.10;99.90;;;5.95;88.97;98329.97;5204696;28;20224;-59
2021/10/17 00:23:27;;;;;;;15.67;14.17;;;5.10;99.90;;;5.91;89.20;98322.88;5207181;28;20684;-58
2021/10/17 00:26:00;;;;;;;16.77;15.13;;;5.10;99.90;;;5.92;88.72;98324.63;5207777;28;20200;-59
2021/10/17 00:28:33;;;;;;;15.93;14.53;;;5.10;99.90;;;5.82;89.62;98328.94;5206167;28;20190;-58
2021/10/17 00:31:08;;;;;;;17.07;15.50;;;5.00;99.90;;;5.83;89.38;98324.75;5204395;28;20591;-59
2021/10/17 00:33:41;;;;;;;15.60;14.10;;;4.90;99.90;;;5.82;88.63;98323.88;5207527;28;20652;-60
2021/10/17 00:36:14;;;;;;;14.50;13.27;;;4.90;99.90;;;5.78;88.47;98320.94;5206681;28;20198;-60
2021/10/17 00:38:47;;;;;;;15.10;13.73;;;4.90;99.90;;;5.77;88.48;98316.66;5202596;28;20214;-61
2021/10/17 00:41:20;;;;;;;16.47;15.00;;;4.90;99.90;;;5.69;88.57;98321.06;5205064;28;20686;-58
2021/10/17 00:43:53;;;;;;;16.13;14.73;;;4.90;99.90;;;5.69;88.78;98308.41;5206418;28;20201;-57
2021/10/17 00:46:28;;;;;;;15.33;13.93;;;4.80;99.90;;;5.65;88.14;98313.97;5206702;28;20197;-58
2021/10/17 00:49:01;;;;;;;14.00;12.80;;;4.80;99.90;;;5.61;88.57;98322.13;5206090;28;20197;-61
2021/10/17 00:51:35;;;;;;;14.20;12.83;;;4.80;99.90;;;5.55;88.63;98316.50;5205270;28;20316;-60
2021/10/17 00:54:08;;;;;;;13.83;12.63;;;4.70;99.90;;;5.55;88.34;98311.44;5207170;28;20216;-57
2021/10/17 00:56:43;;;;;;;15.10;13.60;;;4.70;99.90;;;5.50;88.43;98312.72;5205919;28;20571;-59
2021/10/17 00:59:16;;;;;;;16.73;15.23;;;4.60;99.90;;;5.49;88.36;98316.88;5205374;28;20231;-61
2021/10/17 01:01:50;;;;;;;17.73;16.23;;;4.60;99.90;;;5.51;88.30;98307.75;5202887;28;20723;-61
2021/10/17 01:04:24;;;;;;;15.23;13.83;;;4.60;99.90;;;5.50;87.98;98312.72;5206291;28;20198;-59
2021/10/17 01:06:57;;;;;;;15.17;13.83;;;4.60;99.90;;;5.46;87.81;98310.66;5206048;28;20202;-61
2021/10/17 01:09:30;;;;;;;14.63;13.33;;;4.50;99.90;;;5.36;88.03;98303.94;5203279;28;20211;-60
2021/10/17 01:12:05;;;;;;;14.27;12.90;;;4.40;99.90;;;5.31;88.44;98303.56;5206177;28;20336;-60
2021/10/17 01:14:38;;;;;;;13.10;11.90;;;4.50;99.90;;;5.32;88.38;98300.28;5205799;28;20573;-59
2021/10/17 01:17:12;;;;;;;14.17;12.67;;;4.40;99.90;;;5.32;88.79;98305.34;5205114;28;20752;-60
2021/10/17 01:19:48;;;;;;;13.93;12.63;;;4.50;99.90;;;5.33;88.66;98298.63;5205644;28;20205;-59
2021/10/17 01:22:24;;;;;;;15.07;13.67;;;4.50;99.90;;;5.34;88.91;98290.25;5202840;28;20218;-59
2021/10/17 01:24:57;;;;;;;14.53;13.13;;;4.60;99.90;;;5.29;89.21;98289.84;5206052;28;20200;-61
2021/10/17 01:27:30;;;;;;;15.83;14.10;;;4.50;99.90;;;5.24;89.68;98293.66;5206374;28;20575;-61
2021/10/17 01:30:05;;;;;;;15.57;13.67;;;4.50;99.90;;;5.25;90.38;98292.03;5204567;28;20583;-58
2021/10/17 01:32:38;;;;;;;14.83;13.50;;;4.60;99.90;;;5.25;90.70;98287.84;5205296;28;20588;-59
2021/10/17 01:35:12;;;;;;;13.97;12.67;;;4.60;99.90;;;5.34;89.87;98287.72;5206654;28;20202;-57
2021/10/17 01:37:45;;;;;;;12.80;11.50;;;4.50;99.90;;;5.34;88.75;98287.72;5204455;28;20227;-59
2021/10/17 01:40:19;;;;;;;13.63;12.33;;;4.40;99.90;;;5.24;88.67;98286.06;5203323;28;20201;-62
2021/10/17 01:42:52;;;;;;;12.87;11.60;;;4.40;99.90;;;5.21;88.50;98283.28;5205584;28;20229;-60
2021/10/17 01:45:25;;;;;;;12.07;10.97;;;4.40;99.90;;;5.16;88.33;98285.41;5201075;28;20296;-60
2021/10/17 01:47:58;;;;;;;11.97;10.77;;;4.30;99.90;;;5.13;88.17;98285.16;5204588;28;20202;-61
2021/10/17 01:50:33;;;;;;;11.70;10.70;;;4.30;99.90;;;5.08;88.20;98285.53;5204620;28;20198;-59
2021/10/17 01:53:06;;;;;;;11.73;10.53;;;4.20;99.90;;;5.01;88.54;98280.69;5204204;28;20232;-59
2021/10/17 01:55:39;;;;;;;12.30;11.00;;;4.20;99.90;;;5.02;88.61;98287.53;5205184;28;20581;-62
2021/10/17 01:58:12;;;;;;;12.13;10.93;;;4.30;99.90;;;5.02;88.65;98279.94;5203977;28;20229;-60
2021/10/17 02:00:45;;;;;;;11.93;10.73;;;4.30;99.90;;;5.07;88.34;98284.66;5204798;28;20198;-59
2021/10/17 02:03:18;;;;;;;11.97;10.80;;;4.30;99.90;;;5.03;88.19;98281.69;5191544;22;20751;-58
2021/10/17 02:05:52;;;;;;;11.60;10.50;;;4.20;99.90;;;5.00;88.31;98283.97;5181953;28;20305;-55
2021/10/17 02:08:25;;;;;;;12.23;10.93;;;4.20;99.90;;;5.00;87.90;98279.78;5178352;28;20219;-57
2021/10/17 02:10:59;;;;;;;11.40;10.20;;;4.20;99.90;;;4.92;88.02;98274.09;5179919;28;20296;-62
2021/10/17 02:13:32;;;;;;;11.70;10.60;;;4.10;99.90;;;4.95;88.09;98276.88;5167142;28;20305;-63
2021/10/17 02:16:06;;;;;;;12.70;11.53;;;4.10;99.90;;;4.91;88.69;98276.50;5163893;28;20581;-57
2021/10/17 02:18:39;;;;;;;12.40;11.10;;;4.20;99.90;;;4.90;89.15;98280.66;5165130;28;20219;-57
2021/10/17 02:21:13;;;;;;;14.10;12.70;;;4.20;99.90;;;4.86;90.10;98288.75;5164869;28;20206;-61
2021/10/17 02:23:48;;;;;;;13.57;12.27;;;4.20;99.90;;;4.88;90.04;98276.22;5163818;28;20709;-55
2021/10/17 02:26:21;;;;;;;14.87;13.47;;;4.20;99.90;;;4.89;89.58;98273.84;5165143;28;20730;-63
2021/10/17 02:28:55;;;;;;;14.30;12.90;;;4.20;99.90;;;4.88;89.68;98269.50;5164799;28;20289;-61
2021/10/17 02:31:28;;;;;;;13.27;12.07;;;4.20;99.90;;;4.82;89.58;98281.66;5163356;28;20209;-58
2021/10/17 02:34:01;;;;;;;14.30;12.90;;;4.10;99.90;;;4.81;89.70;98268.84;5164805;28;20203;-63
2021/10/17 02:36:36;;;;;;;15.93;14.33;;;4.10;99.90;;;4.86;89.93;98278.63;5167507;28;20195;-59
2021/10/17 02:39:09;;;;;;;15.47;14.07;;;4.10;99.90;;;4.84;90.05;98270.03;5165976;28;20768;-60
2021/10/17 02:41:42;;;;;;;15.63;14.03;;;4.10;99.90;;;4.75;89.97;98274.31;5164689;28;20577;-58
2021/10/17 02:44:15;;;;;;;15.80;14.20;;;4.00;99.90;;;4.69;90.25;98276.28;5164698;28;20203;-61
2021/10/17 02:46:48;;;;;;;16.03;14.43;;;4.00;99.90;;;4.71;90.69;98269.72;5163709;28;20301;-58
2021/10/17 02:49:21;;;;;;;16.10;14.53;;;4.00;99.90;;;4.67;90.60;98270.22;5164202;28;20574;-57
2021/10/17 02:51:56;;;;;;;16.33;14.80;;;4.00;99.90;;;4.66;90.44;98270.94;5164782;28;20607;-59
2021/10/17 02:54:29;;;;;;;15.20;13.63;;;3.90;99.90;;;4.64;90.52;98267.44;5166163;28;20643;-62
2021/10/17 02:57:02;;;;;;;16.00;14.43;;;3.90;99.90;;;4.62;90.48;98256.28;5163954;28;20217;-58
2021/10/17 02:59:35;;;;;;;16.67;14.97;;;3.90;99.90;;;4.51;90.33;98258.75;5163067;28;20375;-58
2021/10/17 03:02:08;;;;;;;15.70;14.20;;;3.80;99.90;;;4.54;90.62;98262.31;5163118;28;20246;-59
2021/10/17 03:04:41;;;;;;;17.03;15.23;;;3.80;99.90;;;4.57;90.60;98263.44;5164799;28;20207;-60
2021/10/17 03:07:15;;;;;;;16.40;14.80;;;3.90;99.90;;;4.53;91.11;98263.97;5159947;28;20199;-60
2021/10/17 03:09:48;;;;;;;16.87;15.07;;;3.90;99.90;;;4.54;91.06;98267.38;5163899;28;20295;-58
2021/10/17 03:12:21;;;;;;;17.50;15.80;;;3.90;99.90;;;4.53;90.43;98265.59;5162836;28;20305;-64
2021/10/17 03:14:54;;;;;;;15.80;14.30;;;3.80;99.90;;;4.47;90.93;98269.38;5170906;28;20210;-61
2021/10/17 03:17:28;;;;;;;16.53;14.97;;;3.80;99.90;;;4.46;90.46;98267.63;5164339;28;20287;-57
2021/10/17 03:20:01;;;;;;;15.97;14.37;;;3.80;99.90;;;4.47;90.83;98265.97;5156986;28;20234;-61
2021/10/17 03:22:35;;;;;;;15.77;14.30;;;3.80;99.90;;;4.46;90.79;98265.09;5164797;28;20561;-58
2021/10/17 03:25:09;;;;;;;15.93;14.33;;;3.80;99.90;;;4.46;90.79;98265.09;5161378;28;20207;-58
2021/10/17 03:27:42;;;;;;;15.23;13.83;;;3.80;99.90;;;4.48;90.49;98257.59;5163687;28;20279;-56
2021/10/17 03:30:15;;;;;;;15.70;14.20;;;3.80;99.90;;;4.45;90.55;98262.41;5163810;28;20293;-63
2021/10/17 03:32:48;;;;;;;16.50;14.90;;;3.70;99.90;;;4.45;91.15;98258.22;5164056;28;20224;-58
2021/10/17 03:35:21;;;;;;;16.40;14.70;;;3.80;99.90;;;4.51;90.98;98263.81;5163046;28;20206;-63
2021/10/17 03:37:56;;;;;;;16.30;14.63;;;3.80;99.90;;;4.44;90.12;98266.59;5164042;28;20211;-57
2021/10/17 03:40:29;;;;;;;15.13;13.53;;;3.70;99.90;;;4.43;90.80;98264.78;5162642;28;20741;-58
2021/10/17 03:43:02;;;;;;;15.57;13.97;;;3.70;99.90;;;4.44;91.04;98256.47;5163652;28;20223;-59
2021/10/17 03:45:35;;;;;;;16.40;14.90;;;3.80;99.90;;;4.49;91.53;98261.91;5163829;28;20225;-59
2021/10/17 03:48:09;;;;;;;15.43;13.83;;;3.80;99.90;;;4.51;91.93;98258.75;5162315;28;20576;-57
2021/10/17 03:50:42;;;;;;;13.63;12.43;;;3.90;99.90;;;4.50;91.43;98267.09;5163376;28;20287;-57
2021/10/17 03:53:17;;;;;;;15.63;13.97;;;3.80;99.90;;;4.48;91.42;98263.53;5162630;28;20294;-58
2021/10/17 03:55:50;;;;;;;15.37;13.83;;;3.80;99.90;;;4.57;91.02;98262.56;5163593;28;20286;-57
2021/10/17 03:58:23;;;;;;;15.60;14.03;;;3.90;99.90;;;4.57;91.12;98265.97;5164058;28;20207;-60
2021/10/17 04:00:56;;;;;;;14.93;13.53;;;3.90;99.90;;;4.51;90.66;98263.81;5161464;28;20221;-58
2021/10/17 04:03:29;;;;;;;15.63;14.00;;;3.80;99.90;;;4.43;90.32;98263.91;5162308;28;20636;-63
2021/10/17 04:06:02;;;;;;;14.50;13.10;;;3.70;99.90;;;4.42;90.23;98260.50;5162766;28;20211;-55
2021/10/17 04:08:39;;;;;;;15.40;13.63;;;3.70;99.90;;;4.42;90.33;98252.91;5162586;28;20202;-57
2021/10/17 04:11:12;;;;;;;15.30;13.80;;;3.70;99.90;;;4.43;90.96;98259.72;5162793;28;20583;-63
2021/10/17 04:13:45;;;;;;;15.70;14.13;;;3.70;99.90;;;4.42;90.87;98247.84;5157077;28;20202;-60
2021/10/17 04:16:18;;;;;;;13.97;12.57;;;3.70;99.90;;;4.40;90.80;98254.41;5163139;28;20208;-58
2021/10/17 04:18:51;;;;;;;16.23;14.53;;;3.70;99.90;;;4.44;90.95;98251.41;5162896;28;20203;-60
2021/10/17 04:21:24;;;;;;;15.00;13.40;;;3.70;99.90;;;4.42;90.90;98252.91;5162602;28;20298;-60
2021/10/17 04:23:58;;;;;;;15.67;13.87;;;3.70;99.90;;;4.34;90.47;98248.81;5161740;28;20209;-63
2021/10/17 04:26:31;;;;;;;16.50;14.40;;;3.60;99.90;;;4.32;90.84;98250.34;5157757;28;20203;-62
2021/10/17 04:29:05;;;;;;;16.60;15.00;;;3.60;99.90;;;4.34;91.45;98256.41;5160596;28;20288;-57
2021/10/17 04:31:38;;;;;;;14.73;13.23;;;3.70;99.90;;;4.35;91.95;98250.59;5163373;28;20309;-59
2021/10/17 04:34:11;;;;;;;15.73;14.17;;;3.70;99.90;;;4.40;91.46;98246.81;5160113;28;20210;-55
2021/10/17 04:36:44;;;;;;;14.90;13.50;;;3.80;99.90;;;4.46;91.77;98249.91;5162683;28;20293;-63
2021/10/17 04:39:19;;;;;;;15.40;13.80;;;3.80;99.90;;;4.45;91.78;98243.03;5161987;28;20585;-60
2021/10/17 04:41:52;;;;;;;14.63;13.23;;;3.80;99.90;;;4.50;91.11;98256.97;5164225;28;20270;-64
2021/10/17 04:44:25;;;;;;;14.27;12.93;;;3.80;99.90;;;4.49;90.67;98239.13;5162634;28;20210;-60
2021/10/17 04:46:58;;;;;;;14.77;13.20;;;3.80;99.90;;;4.49;90.58;98250.16;5161624;28;20531;-60
2021/10/17 04:49:31;;;;;;;14.90;13.50;;;3.80;99.90;;;4.51;90.79;98251.16;5166581;28;20300;-61
2021/10/17 04:52:04;;;;;;;14.40;12.90;;;3.80;99.90;;;4.51;90.45;98252.81;5162337;28;20228;-59
2021/10/17 04:54:39;;;;;;;14.77;13.47;;;3.80;99.90;;;4.48;90.11;98250.91;5163530;28;20209;-58
2021/10/17 04:57:12;;;;;;;14.53;13.13;;;3.80;99.90;;;4.50;90.29;98246.88;5164291;28;20296;-57
2021/10/17 04:59:45;;;;;;;14.77;13.33;;;3.80;99.90;;;4.54;90.32;98252.19;5160035;28;20291;-60
2021/10/17 05:02:18;;;;;;;15.13;13.60;;;3.80;99.90;;;4.57;90.73;98247.38;5167334;28;20234;-58
2021/10/17 05:04:51;;;;;;;16.33;14.63;;;3.80;99.90;;;4.55;91.16;98247.28;5166437;28;20244;-63
2021/10/17 05:07:24;;;;;;;14.37;12.97;;;3.90;99.90;;;4.58;90.61;98250.06;5164596;28;20255;-61
2021/10/17 05:09:59;;;;;;;14.60;13.20;;;3.80;99.90;;;4.60;90.26;98242.59;5164340;28;20579;-57
2021/10/17 05:12:32;;;;;;;15.47;13.87;;;3.90;99.90;;;4.64;90.37;98242.09;5164104;28;20313;-63
2021/10/17 05:15:05;;;;;;;14.80;13.30;;;3.90;99.90;;;4.67;90.77;98244.91;5163894;28;20545;-62
2021/10/17 05:17:39;;;;;;;14.20;12.47;;;4.00;99.90;;;4.73;90.00;98235.28;5163051;28;20298;-59
2021/10/17 05:20:12;;;;;;;14.20;12.83;;;4.00;99.90;;;4.74;89.71;98237.06;5165707;28;20230;-62
2021/10/17 05:22:45;;;;;;;15.13;13.57;;;4.00;99.90;;;4.73;90.21;98245.41;5167530;28;20707;-58
2021/10/17 05:25:20;;;;;;;14.13;12.73;;;4.00;99.90;;;4.79;90.36;98238.34;5163864;28;20214;-59
2021/10/17 05:27:53;;;;;;;14.87;13.37;;;4.10;99.90;;;4.83;90.34;98231.88;5165396;28;20209;-62
2021/10/17 05:30:26;;;;;;;14.60;13.10;;;4.10;99.90;;;4.88;89.99;98226.47;5159254;28;20215;-61
2021/10/17 05:32:59;;;;;;;15.73;13.87;;;4.20;99.90;;;4.89;89.49;98240.00;5163709;28;20742;-61
2021/10/17 05:35:33;;;;;;;14.13;12.63;;;4.10;99.90;;;4.87;88.96;98237.34;5164160;28;20217;-61
2021/10/17 05:38:06;;;;;;;14.00;12.70;;;4.10;99.90;;;4.83;87.64;98229.34;5163550;28;20548;-59
2021/10/17 05:40:40;;;;;;;13.90;12.50;;;3.90;99.90;;;4.69;88.01;98239.22;5166458;28;20241;-61
2021/10/17 05:43:13;;;;;;;14.87;13.40;;;3.80;99.90;;;4.65;88.55;98231.22;5169421;28;20310;-57
2021/10/17 05:45:46;;;;;;;13.77;12.37;;;3.90;99.90;;;4.63;89.01;98231.06;5165586;28;20559;-59
2021/10/17 05:48:20;;;;;;;14.50;13.03;;;3.90;99.90;;;4.60;89.28;98240.06;5163988;28;20203;-60
2021/10/17 05:50:53;;;;;;;13.77;12.37;;;3.80;99.90;;;4.61;89.51;98249.44;5164977;28;20293;-58
2021/10/17 05:53:26;;;;;;;13.60;12.30;;;3.90;99.90;;;4.61;89.95;98251.97;5167543;28;20228;-61
2021/10/17 05:56:01;;;;;;;14.37;13.00;;;3.80;99.90;;;4.60;89.65;98247.66;5165143;28;20588;-58
2021/10/17 05:58:34;;;;;;;14.00;12.67;;;3.80;99.90;;;4.57;89.41;98247.38;5163846;28;20203;-61
2021/10/17 06:01:07;;;;;;;14.27;12.87;;;3.80;99.90;;;4.62;89.70;98246.16;5163630;28;20230;-68
2021/10/17 06:03:40;;;;;;;15.57;13.93;;;3.80;99.90;;;4.49;89.17;98251.78;5162569;28;20246;-60
2021/10/17 06:06:14;;;;;;;13.73;12.37;;;3.80;99.90;;;4.57;89.52;98263.44;5165042;28;20704;-63
2021/10/17 06:08:47;;;;;;;15.73;14.23;;;3.80;99.90;;;4.62;89.21;98261.34;5163370;28;20202;-60
2021/10/17 06:11:22;;;;;;;16.60;15.00;;;3.80;99.90;;;4.65;89.85;98269.19;5162050;28;20300;-59
2021/10/17 06:13:55;;;;;;;20.83;18.63;;;3.90;99.90;;;4.66;89.42;98276.91;5159367;28;20202;-61
2021/10/17 06:16:28;;;;;;;20.77;18.63;;;3.90;99.90;;;4.75;89.23;98279.38;5160333;28;20293;-61
2021/10/17 06:19:02;;;;;;;15.97;14.27;;;3.90;99.90;;;4.89;89.24;98278.00;5160350;28;20207;-58
2021/10/17 06:21:35;;;;;;;15.57;14.07;;;4.10;99.90;;;4.93;87.94;98275.88;5160446;28;20231;-61
2021/10/17 06:24:08;;;;;;;15.13;13.67;;;4.10;99.90;;;5.14;88.18;98283.50;5165587;28;20706;-61
2021/10/17 06:26:42;;;;;;;14.00;12.70;;;4.30;99.90;;;5.21;86.52;98278.22;5156599;28;20244;-62
2021/10/17 06:29:15;;;;;;;15.93;14.43;;;4.40;99.90;;;5.27;87.15;98278.72;5165374;28;20252;-60
2021/10/17 06:31:48;;;;;;;14.07;12.77;;;4.50;99.90;;;5.53;86.24;98280.91;5164140;28;20306;-57
2021/10/17 06:34:21;;;;;;;14.90;13.40;;;4.60;99.90;;;5.67;85.71;98287.13;5159120;28;20206;-62
2021/10/17 06:36:54;;;;;;;14.17;12.67;;;4.80;99.90;;;5.94;85.04;98288.50;5163040;28;20221;-60
2021/10/17 06:39:27;;;;;;;13.20;11.90;;;5.10;99.90;;;6.12;84.53;98284.03;5162060;28;20663;-60
2021/10/17 06:42:02;;;;;;;13.23;12.03;;;5.20;99.90;;;6.35;83.86;98282.47;5160965;28;20227;-55
2021/10/17 06:44:36;;;;;;;13.53;12.23;;;5.40;99.90;;;6.45;82.13;98290.06;5162230;28;20201;-57
2021/10/17 06:47:09;;;;;;;14.87;13.40;;;5.50;99.90;;;6.59;81.95;98288.63;5161780;28;20207;-58
2021/10/17 06:49:42;;;;;;;14.57;13.17;;;5.70;99.90;;;6.80;81.21;98295.38;5161011;28;20199;-56
2021/10/17 06:52:15;;;;;;;13.13;11.93;;;5.90;99.90;;;7.11;80.17;98296.13;5162149;28;20237;-58
2021/10/17 06:54:48;;;;;;;13.27;12.00;;;6.10;99.90;;;7.40;79.15;98288.19;5162270;28;20303;-54
2021/10/17 06:57:22;;;;;;;13.03;11.83;;;6.30;99.90;;;7.60;78.13;98289.69;5164225;28;20211;-60
2021/10/17 06:59:55;;;;;;;13.27;11.97;;;6.50;99.90;;;7.73;76.58;98293.16;5160636;28;20205;-63
2021/10/17 07:02:28;;;;;;;13.50;12.40;;;6.80;99.90;;;7.94;76.21;98292.22;5160139;28;20306;-56
2021/10/17 07:05:02;;;;;;;13.77;12.57;;;6.90;99.90;;;8.00;75.85;98300.28;5156532;28;20253;-60
2021/10/17 07:07:35;;;;;;;14.07;12.77;;;6.90;99.90;;;7.94;75.48;98293.88;5164687;28;20223;-60
2021/10/17 07:10:09;;;;;;;12.90;11.77;;;6.80;99.90;;;8.12;76.36;98298.66;5164371;28;20203;-61
2021/10/17 07:12:43;;;;;;;12.90;11.70;;;7.00;99.90;;;8.37;74.77;98297.03;5160074;28;20208;-60
2021/10/17 07:15:16;;;;;;;13.53;12.30;;;7.30;99.90;;;8.32;74.51;98299.22;5155379;28;20199;-61
2021/10/17 07:17:49;;;;;;;14.03;12.63;;;7.20;99.90;;;8.30;74.57;98301.66;5157088;28;20590;-60
2021/10/17 07:20:36;;;;;;;14.13;12.77;;;7.20;99.90;;;8.40;73.51;98298.16;5163810;28;20199;-61
2021/10/17 07:23:09;;;;;;;14.07;12.77;;;7.10;99.90;;;8.37;73.69;98297.91;5160725;28;20219;-56
2021/10/17 07:25:42;;;;;;;14.37;12.97;;;7.30;99.90;;;8.57;74.48;98302.81;5165551;28;20196;-66
2021/10/17 07:28:17;;;;;;;15.17;13.80;;;7.50;99.90;;;8.67;73.57;98301.81;5157446;28;20298;-63
2021/10/17 07:30:50;;;;;;;14.60;13.23;;;7.50;99.90;;;8.89;73.99;98295.66;5160183;28;20205;-59
2021/10/17 07:33:23;;;;;;;14.20;12.80;;;7.80;99.90;;;9.25;72.97;98307.56;5164217;28;20225;-60
2021/10/17 07:35:57;;;;;;;13.20;12.00;;;8.00;99.90;;;9.25;71.85;98310.13;5158627;28;20619;-64
2021/10/17 07:38:30;;;;;;;12.77;11.67;;;8.10;99.90;;;9.46;72.17;98309.03;5162163;28;20205;-60
2021/10/17 07:41:04;;;;;;;12.50;11.40;;;8.40;99.90;;;9.71;71.52;98305.59;5160301;28;20219;-62
2021/10/17 07:43:39;;;;;;;12.87;11.67;;;8.60;99.90;;;9.90;71.37;98305.16;5170463;28;20602;-58
2021/10/17 07:46:12;;;;;;;12.20;11.20;;;8.80;99.90;;;10.07;68.87;98299.53;5165307;28;20206;-65
2021/10/17 07:48:45;;;;;;;12.47;11.33;;;8.90;99.90;;;10.33;68.11;98298.69;5162372;28;20576;-61
2021/10/17 07:51:18;;;;;;;11.67;10.53;;;9.40;99.90;;;10.29;68.91;98299.28;5164271;28;20202;-59
2021/10/17 07:53:51;;;;;;;12.53;11.43;;;9.30;99.90;;;10.37;69.23;98295.53;5161805;28;20225;-60
2021/10/17 07:56:24;;;;;;;13.73;12.43;;;9.30;99.90;;;10.52;68.40;98300.75;5163369;28;20204;-65
2021/10/17 07:58:59;;;;;;;12.63;11.43;;;9.50;99.90;;;10.75;68.15;98303.91;5162195;28;20298;-56
2021/10/17 08:01:32;;;;;;;13.65;12.40;;;9.70;99.90;;;10.78;67.89;98302.41;5158329;28;20229;-65
2021/10/17 08:04:05;;;;;;;12.90;11.80;;;9.80;99.90;;;10.95;68.20;98303.47;5208970;22;20221;-63
2021/10/17 08:06:38;;;;;;;13.13;11.93;;;9.80;99.90;;;11.01;68.18;98310.66;5224316;28;20198;-63
2021/10/17 08:09:11;;;;;;;13.98;12.65;;;9.70;99.90;;;11.09;68.75;98309.47;5222586;28;20199;-63
2021/10/17 08:11:49;;;;;;;13.13;11.93;;;9.70;99.90;;;11.04;68.43;98313.41;5220439;28;20246;-63
2021/10/17 08:14:23;;;;;;;13.57;12.38;;;9.70;99.90;;;10.99;68.27;98309.69;5206054;28;20219;-62
2021/10/17 08:16:57;;;;;;;13.63;12.43;;;9.60;99.90;;;10.91;69.71;98308.31;5202228;28;20205;-62
2021/10/17 08:19:30;;;;;;;13.65;12.38;;;9.60;99.90;;;10.82;69.50;98311.19;5204874;28;20208;-62
2021/10/17 08:22:03;;;;;;;14.23;12.57;;;9.70;99.90;;;10.90;70.40;98316.75;5201766;28;20218;-61
2021/10/17 08:24:36;;;;;;;14.88;13.43;;;9.70;99.90;;;10.87;70.08;98309.78;5211632;28;20224;-62
2021/10/17 08:27:09;;;;;;;14.13;12.85;;;9.70;99.90;;;10.96;70.25;98306.91;5213134;28;20290;-62
2021/10/17 08:29:43;;;;;;;12.82;11.63;;;9.80;99.90;;;11.09;71.18;98309.47;5212193;28;20208;-63
2021/10/17 08:32:16;;;;;;;13.32;12.10;;;10.10;99.90;;;11.31;69.94;98308.25;5205935;28;20284;-61
2021/10/17 08:34:49;;;;;;;14.15;12.90;;;10.30;99.90;;;11.62;69.41;98309.31;5208049;28;20198;-63
2021/10/17 08:37:22;;;;;;;15.52;14.02;;;10.60;99.90;;;11.83;69.23;98307.13;5206900;28;20332;-62
2021/10/17 08:39:57;;;;;;;14.27;12.98;;;10.80;99.90;;;12.01;69.01;98303.91;5206224;28;20255;-61
2021/10/17 08:42:30;;;;;;;14.80;13.23;;;11.10;99.90;;;12.19;68.87;98305.00;5204710;28;20315;-61
2021/10/17 08:45:10;;;;;;;14.70;13.23;;;11.40;99.90;;;12.45;68.50;98303.94;5207685;28;20234;-62
2021/10/17 08:47:45;;;;;;;14.32;12.93;;;11.60;99.90;;;12.17;69.47;98302.34;5212738;28;20250;-63
2021/10/17 08:50:19;;;;;;;15.55;14.05;;;11.60;99.90;;;12.45;69.75;98309.06;5208049;28;20227;-63
2021/10/17 08:52:52;;;;;;;16.13;14.52;;;11.80;99.90;;;12.83;67.59;98302.63;5208613;28;20217;-63
2021/10/17 08:55:25;;;;;;;16.38;14.77;;;12.00;99.90;;;12.94;67.18;98306.66;5210286;28;20198;-63
2021/10/17 08:57:58;;;;;;;17.85;16.13;;;12.10;99.90;;;13.11;67.56;98302.44;5204825;28;20197;-61
2021/10/17 09:00:34;;;;;;;15.63;14.23;;;12.40;99.90;;;13.16;65.90;98307.81;5200849;28;20198;-60
2021/10/17 09:03:07;;;;;;;15.95;14.35;;;12.50;99.90;;;13.03;67.37;98309.72;5206308;28;20693;-60
2021/10/17 09:05:43;;;;;;;17.17;15.57;;;12.40;99.90;;;13.22;66.81;98305.56;5205972;28;20678;-61
2021/10/17 09:08:18;;;;;;;15.27;13.80;;;12.40;99.90;;;13.40;66.63;98304.03;5207799;28;20267;-60
2021/10/17 09:10:53;;;;;;;14.30;12.98;;;12.60;99.90;;;13.55;65.84;98303.97;5205350;28;20665;-63
2021/10/17 09:13:26;;;;;;;15.80;14.30;;;12.80;99.90;;;13.50;66.20;98302.81;5204725;28;20220;-63
2021/10/17 09:16:00;;;;;;;15.07;13.57;;;12.70;99.90;;;13.65;67.02;98305.31;5203491;28;20223;-63
2021/10/17 09:18:35;;;;;;;16.63;14.98;;;12.90;99.90;;;13.81;66.30;98302.75;5209745;28;20201;-63
2021/10/17 09:21:10;;;;;;;15.23;13.90;;;13.00;99.90;;;13.95;65.04;98291.47;5205624;28;20590;-63
2021/10/17 09:23:45;;;;;;;15.77;14.15;;;13.30;99.90;;;14.05;65.43;98291.94;5205649;28;20700;-63
2021/10/17 09:26:21;;;;;;;14.40;12.93;;;13.20;99.90;;;14.14;64.53;98297.56;5205301;28;20244;-63
2021/10/17 09:28:54;;;;;;;15.43;13.93;;;13.40;99.90;;;14.14;65.23;98292.41;5200337;28;20220;-62
2021/10/17 09:31:29;;;;;;;14.57;13.18;;;13.40;99.90;;;14.09;65.92;98299.00;5213377;28;20201;-62
2021/10/17 09:34:02;;;;;;;15.82;14.13;;;13.40;99.90;;;14.23;65.06;98292.88;5205596;28;20214;-62
2021/10/17 09:36:35;;;;;;;14.95;13.55;;;13.40;99.90;;;14.31;65.63;98286.41;5207086;28;20300;-61
2021/10/17 09:39:13;;;;;;;14.50;13.00;;;13.60;99.90;;;14.39;65.50;98279.97;5207422;28;20200;-61
2021/10/17 09:41:52;;;;;;;14.98;13.43;;;13.60;99.90;;;14.58;65.01;98278.31;5200084;28;20201;-62
2021/10/17 09:44:38;;;;;;;14.88;13.38;;;13.80;99.90;;;14.66;65.05;98277.00;5201951;28;20308;-62
2021/10/17 09:47:13;;;;;;;15.18;13.73;;;13.80;99.90;;;14.71;64.76;98272.03;5208333;28;20205;-60
2021/10/17 09:49:47;;;;;;;15.57;14.07;;;13.80;99.90;;;14.69;64.46;98274.56;5204950;28;20204;-62
2021/10/17 09:52:23;;;;;;;14.75;13.35;;;13.80;99.90;;;14.75;64.94;98267.13;5200096;28;21366;-60
2021/10/17 09:55:08;;;;;;;16.83;15.00;;;13.90;99.90;;;14.80;64.07;98263.09;5204303;28;20260;-61
2021/10/17 09:57:41;;;;;;;15.60;14.10;;;14.00;99.90;;;14.83;64.17;98259.78;5202681;28;20209;-62
2021/10/17 10:00:15;;;;;;;14.77;13.38;;;14.00;99.90;;;14.99;64.35;98263.91;5204778;28;20209;-61
2021/10/17 10:02:51;;;;;;;15.02;13.52;;;14.10;99.90;;;15.02;64.60;98262.41;5202752;28;20233;-60
2021/10/17 10:05:28;;;;;;;14.68;13.27;;;14.10;99.90;;;15.07;63.92;98262.59;5201226;28;20206;-62
2021/10/17 10:08:04;;;;;;;14.05;12.73;;;14.20;99.90;;;15.11;64.06;98259.34;5203401;28;20252;-61
2021/10/17 10:10:38;;;;;;;14.82;13.48;;;14.20;99.90;;;15.12;64.10;98258.53;5201793;28;20452;-61
2021/10/17 10:13:12;;;;;;;14.40;13.20;;;14.30;99.90;;;15.16;64.07;98257.84;5201728;28;20227;-60
2021/10/17 10:15:45;;;;;;;14.35;13.05;;;14.30;99.90;;;15.22;64.83;98255.56;5199315;28;20484;-61
2021/10/17 10:18:24;;;;;;;14.45;13.07;;;14.40;99.90;;;15.30;64.99;98256.78;5202646;28;20212;-62
2021/10/17 10:20:57;;;;;;;13.93;12.73;;;14.50;99.90;;;15.36;65.06;98260.44;5199029;28;20635;-64
2021/10/17 10:23:30;;;;;;;13.95;12.63;;;14.60;99.90;;;15.52;64.25;98252.59;5200718;28;20610;-63
2021/10/17 10:26:03;;;;;;;14.82;13.50;;;14.70;99.90;;;15.61;63.58;98254.69;5204560;28;20239;-58
2021/10/17 10:28:39;;;;;;;13.93;12.50;;;14.60;99.90;;;15.56;63.51;98246.75;5204056;28;20209;-62
2021/10/17 10:31:54;;;;;;;14.40;13.10;;;14.80;99.90;;;15.64;63.55;98240.22;5204095;28;20196;-62
2021/10/17 10:34:54;;;;;;;14.52;13.02;;;14.80;99.90;;;15.82;62.92;98249.59;5177722;28;20681;-62
2021/10/17 10:37:30;;;;;;;13.75;12.40;;;14.80;99.90;;;15.77;62.15;98237.41;5202584;28;20259;-61
2021/10/17 10:40:17;;;;;;;14.05;12.75;;;14.90;99.90;;;15.80;61.55;98236.66;5201197;28;20193;-62
2021/10/17 10:42:52;;;;;;;13.77;12.52;;;15.00;99.90;;;15.82;61.47;98236.72;5200706;28;20228;-62